createdAt,value
2019-05-10T00:00:51.220Z,79.30
2019-05-10T00:01:51.191Z,79.24
2019-05-10T00:02:51.175Z,79.44
2019-05-10T00:03:51.161Z,79.34
2019-05-10T00:04:51.164Z,80.05
2019-05-10T00:05:51.190Z,79.96
2019-05-10T00:06:51.127Z,79.96
2019-05-10T00:07:51.113Z,80.05
2019-05-10T00:08:51.105Z,79.85
2019-05-10T00:09:51.135Z,80.05
2019-05-10T00:10:51.166Z,79.75
2019-05-10T00:11:51.115Z,80.57
2019-05-10T00:12:51.064Z,80.77
2019-05-10T00:13:51.066Z,80.77
2019-05-10T00:14:51.045Z,81.29
2019-05-10T00:15:51.035Z,81.59
2019-05-10T00:16:51.038Z,81.90
2019-05-10T00:17:51.049Z,82.21
2019-05-10T00:18:51.002Z,83.13
2019-05-10T00:19:50.988Z,82.82
2019-05-10T00:20:50.974Z,83.64
2019-05-10T00:21:50.986Z,83.68
2019-05-10T00:22:50.971Z,84.19
2019-05-10T00:23:50.942Z,84.19
2019-05-10T00:25:03.290Z,84.50
2019-05-10T00:25:51.345Z,84.09
2019-05-10T00:26:50.917Z,84.91
2019-05-10T00:27:50.924Z,85.01
2019-05-10T00:28:50.907Z,85.93
2019-05-10T00:29:50.914Z,86.58
2019-05-10T00:30:50.902Z,86.14
2019-05-10T00:31:50.850Z,86.18
2019-05-10T00:32:50.857Z,86.58
2019-05-10T00:33:50.837Z,87.20
2019-05-10T00:34:50.834Z,87.20
2019-05-10T00:35:50.834Z,88.12
2019-05-10T00:36:50.798Z,88.53
2019-05-10T00:37:50.786Z,88.84
2019-05-10T00:38:50.780Z,89.25
2019-05-10T00:39:50.771Z,88.74
2019-05-10T00:40:50.787Z,88.64
2019-05-10T00:41:50.743Z,89.04
2019-05-10T00:42:50.734Z,90.07
2019-05-10T00:43:50.724Z,90.32
2019-05-10T00:44:50.728Z,90.32
2019-05-10T00:45:50.721Z,91.03
2019-05-10T00:46:50.714Z,91.80
2019-05-10T00:47:50.682Z,90.93
2019-05-10T00:48:50.672Z,91.59
2019-05-10T00:49:50.653Z,92.00
2019-05-10T00:50:50.650Z,92.41
2019-05-10T00:51:50.663Z,92.93
2019-05-10T00:52:50.652Z,92.61
2019-05-10T00:53:50.664Z,92.93
2019-05-10T00:54:50.606Z,92.72
2019-05-10T00:55:50.588Z,93.74
2019-05-10T00:56:50.605Z,93.74
2019-05-10T00:57:50.586Z,93.85
2019-05-10T00:58:50.629Z,93.13
2019-05-10T00:59:50.541Z,92.93
2019-05-10T01:00:50.530Z,92.93
2019-05-10T01:01:50.520Z,93.54
2019-05-10T01:02:50.554Z,93.59
2019-05-10T01:03:50.518Z,93.54
2019-05-10T01:04:50.485Z,93.95
2019-05-10T01:05:50.484Z,94.05
2019-05-10T01:06:50.470Z,93.54
2019-05-10T01:07:50.455Z,93.74
2019-05-10T01:08:50.459Z,93.74
2019-05-10T01:09:50.446Z,93.44
2019-05-10T01:10:50.419Z,93.44
2019-05-10T01:11:50.407Z,93.44
2019-05-10T01:12:50.400Z,93.74
2019-05-10T01:13:50.409Z,93.74
2019-05-10T01:14:50.387Z,93.13
2019-05-10T01:15:50.382Z,93.64
2019-05-10T01:16:50.360Z,93.33
2019-05-10T01:17:50.353Z,93.48
2019-05-10T01:18:50.333Z,93.17
2019-05-10T01:19:50.353Z,92.86
2019-05-10T01:20:50.335Z,93.79
2019-05-10T01:21:50.336Z,93.48
2019-05-10T01:22:50.292Z,92.93
2019-05-10T01:23:50.277Z,93.23
2019-05-10T01:24:50.270Z,92.97
2019-05-10T01:25:50.272Z,93.48
2019-05-10T01:26:50.270Z,92.76
2019-05-10T01:27:50.333Z,93.17
2019-05-10T01:28:50.225Z,92.76
2019-05-10T01:29:50.206Z,91.84
2019-05-10T01:30:50.203Z,92.35
2019-05-10T01:31:50.221Z,92.46
2019-05-10T01:32:50.221Z,92.55
2019-05-10T01:33:50.165Z,92.55
2019-05-10T01:34:50.154Z,92.55
2019-05-10T01:35:50.146Z,92.40
2019-05-10T01:36:50.137Z,92.35
2019-05-10T01:37:50.137Z,92.66
2019-05-10T01:38:50.142Z,92.55
2019-05-10T01:39:50.099Z,93.48
2019-05-10T01:40:50.085Z,93.89
2019-05-10T01:41:50.078Z,93.68
2019-05-10T01:42:50.075Z,92.60
2019-05-10T01:43:50.091Z,92.70
2019-05-10T01:44:50.063Z,92.70
2019-05-10T01:45:50.035Z,93.01
2019-05-10T01:46:50.025Z,92.60
2019-05-10T01:47:50.019Z,93.63
2019-05-10T01:48:50.037Z,93.42
2019-05-10T01:49:50.003Z,93.63
2019-05-10T01:50:50.013Z,93.12
2019-05-10T01:51:49.972Z,93.01
2019-05-10T01:52:49.954Z,93.73
2019-05-10T01:53:49.953Z,93.12
2019-05-10T01:54:49.958Z,93.21
2019-05-10T01:55:52.496Z,93.73
2019-05-10T01:56:49.944Z,93.63
2019-05-10T01:57:49.907Z,94.34
2019-05-10T01:58:49.895Z,93.93
2019-05-10T01:59:49.911Z,94.04
2019-05-10T02:00:49.883Z,94.34
2019-05-10T02:01:49.879Z,94.24
2019-05-10T02:02:49.874Z,93.48
2019-05-10T02:03:49.834Z,93.27
2019-05-10T02:04:49.853Z,93.32
2019-05-10T02:05:49.811Z,94.20
2019-05-10T02:06:49.831Z,94.34
2019-05-10T02:07:49.825Z,93.63
2019-05-10T02:08:49.782Z,93.52
2019-05-10T02:09:49.777Z,94.45
2019-05-10T02:10:49.758Z,94.40
2019-05-10T02:11:49.747Z,94.30
2019-05-10T02:12:49.747Z,94.51
2019-05-10T02:13:49.747Z,94.71
2019-05-10T02:14:49.713Z,94.81
2019-05-10T02:15:49.715Z,94.81
2019-05-10T02:16:49.702Z,95.53
2019-05-10T02:17:49.703Z,95.84
2019-05-10T02:18:49.682Z,95.94
2019-05-10T02:19:49.681Z,95.74
2019-05-10T02:20:49.691Z,95.94
2019-05-10T02:21:49.633Z,96.15
2019-05-10T02:22:49.672Z,95.94
2019-05-10T02:23:49.622Z,95.94
2019-05-10T02:24:49.619Z,96.15
2019-05-10T02:25:49.646Z,95.74
2019-05-10T02:26:49.626Z,96.35
2019-05-10T02:27:49.568Z,95.94
2019-05-10T02:28:49.558Z,95.57
2019-05-10T02:29:49.585Z,95.89
2019-05-10T02:30:49.555Z,95.57
2019-05-10T02:31:49.554Z,95.37
2019-05-10T02:32:49.525Z,94.96
2019-05-10T02:33:49.498Z,95.27
2019-05-10T02:34:49.498Z,95.27
2019-05-10T02:35:49.513Z,94.85
2019-05-10T02:36:49.490Z,94.71
2019-05-10T02:37:49.496Z,94.55
2019-05-10T02:38:49.455Z,94.40
2019-05-10T02:39:49.463Z,93.89
2019-05-10T02:40:49.428Z,93.89
2019-05-10T02:41:49.432Z,93.68
2019-05-10T02:42:49.424Z,93.48
2019-05-10T02:43:49.393Z,93.59
2019-05-10T02:44:49.431Z,93.93
2019-05-10T02:45:49.374Z,93.59
2019-05-10T02:46:49.361Z,94.40
2019-05-10T02:47:49.413Z,94.40
2019-05-10T02:48:49.358Z,94.40
2019-05-10T02:49:49.320Z,94.24
2019-05-10T02:50:49.368Z,94.45
2019-05-10T02:51:49.307Z,94.30
2019-05-10T02:52:49.298Z,93.99
2019-05-10T02:53:49.332Z,94.51
2019-05-10T02:54:49.292Z,94.40
2019-05-10T02:55:49.260Z,93.68
2019-05-10T02:56:49.271Z,93.73
2019-05-10T02:57:49.231Z,93.38
2019-05-10T02:58:49.257Z,93.27
2019-05-10T02:59:49.258Z,94.20
2019-05-10T03:00:49.227Z,93.89
2019-05-10T03:01:49.188Z,94.04
2019-05-10T03:02:49.201Z,93.93
2019-05-10T03:03:49.173Z,93.93
2019-05-10T03:04:49.185Z,94.14
2019-05-10T03:05:49.167Z,94.55
2019-05-10T03:06:49.156Z,93.93
2019-05-10T03:07:49.124Z,94.24
2019-05-10T03:08:49.145Z,93.32
2019-05-10T03:09:49.107Z,93.32
2019-05-10T03:10:49.106Z,93.42
2019-05-10T03:11:49.098Z,93.63
2019-05-10T03:12:49.099Z,93.77
2019-05-10T03:13:49.120Z,93.52
2019-05-10T03:14:49.049Z,94.34
2019-05-10T03:15:49.070Z,94.14
2019-05-10T03:16:49.035Z,94.04
2019-05-10T03:17:49.043Z,93.57
2019-05-10T03:18:49.029Z,93.32
2019-05-10T03:19:48.993Z,94.39
2019-05-10T03:20:49.005Z,94.55
2019-05-10T03:21:48.992Z,93.98
2019-05-10T03:22:48.986Z,93.67
2019-05-10T03:23:48.984Z,93.40
2019-05-10T03:24:48.942Z,94.02
2019-05-10T03:25:48.924Z,94.23
2019-05-10T03:26:51.369Z,93.82
2019-05-10T03:27:48.906Z,94.64
2019-05-10T03:28:48.905Z,94.74
2019-05-10T03:29:48.918Z,94.54
2019-05-10T03:30:48.916Z,94.43
2019-05-10T03:31:48.878Z,94.33
2019-05-10T03:32:48.858Z,94.27
2019-05-10T03:33:55.666Z,94.48
2019-05-10T03:34:48.854Z,93.96
2019-05-10T03:35:48.850Z,94.37
2019-05-10T03:36:48.814Z,94.78
2019-05-10T03:37:48.802Z,94.17
2019-05-10T03:38:48.795Z,94.42
2019-05-10T03:39:48.782Z,94.93
2019-05-10T03:40:48.780Z,94.52
2019-05-10T03:41:48.783Z,95.24
2019-05-10T03:42:48.789Z,96.06
2019-05-10T03:43:48.730Z,95.96
2019-05-10T03:44:48.725Z,96.17
2019-05-10T03:45:48.716Z,96.06
2019-05-10T03:46:48.730Z,95.96
2019-05-10T03:47:48.713Z,96.27
2019-05-10T03:48:48.678Z,96.17
2019-05-10T03:49:48.656Z,96.37
2019-05-10T03:50:48.694Z,96.37
2019-05-10T03:51:48.651Z,95.75
2019-05-10T03:52:51.953Z,96.00
2019-05-10T03:53:48.651Z,96.00
2019-05-10T03:54:48.612Z,95.80
2019-05-10T03:55:48.590Z,96.00
2019-05-10T03:56:48.583Z,96.21
2019-05-10T03:57:48.598Z,96.21
2019-05-10T03:58:48.586Z,96.00
2019-05-10T03:59:48.585Z,96.21
2019-05-10T04:00:48.541Z,96.21
2019-05-10T04:01:48.528Z,96.15
2019-05-10T04:02:48.520Z,96.46
2019-05-10T04:03:48.530Z,96.15
2019-05-10T04:04:48.518Z,96.25
2019-05-10T04:05:48.485Z,96.36
2019-05-10T04:06:48.483Z,95.95
2019-05-10T04:07:48.461Z,95.74
2019-05-10T04:08:48.461Z,95.74
2019-05-10T04:09:48.457Z,95.89
2019-05-10T04:10:48.448Z,96.20
2019-05-10T04:11:48.414Z,96.41
2019-05-10T04:12:48.409Z,96.50
2019-05-10T04:13:48.407Z,96.71
2019-05-10T04:14:48.394Z,96.81
2019-05-10T04:15:48.410Z,96.71
2019-05-10T04:16:48.388Z,97.43
2019-05-10T04:17:50.401Z,97.17
2019-05-10T04:18:48.341Z,97.17
2019-05-10T04:19:48.337Z,97.48
2019-05-10T04:20:48.327Z,97.43
2019-05-10T04:21:48.319Z,97.58
2019-05-10T04:22:48.321Z,97.33
2019-05-10T04:23:48.282Z,97.23
2019-05-10T04:24:48.280Z,97.23
2019-05-10T04:25:48.270Z,97.43
2019-05-10T04:26:48.287Z,97.13
2019-05-10T04:27:48.262Z,97.95
2019-05-10T04:28:48.229Z,97.85
2019-05-10T04:29:48.226Z,97.69
2019-05-10T04:30:48.285Z,98.36
2019-05-10T04:31:48.204Z,98.21
2019-05-10T04:32:48.243Z,98.00
2019-05-10T04:33:48.191Z,98.11
2019-05-10T04:34:48.185Z,98.21
2019-05-10T04:35:48.156Z,98.25
2019-05-10T04:36:49.083Z,98.11
2019-05-10T04:37:48.173Z,98.21
2019-05-10T04:38:48.127Z,98.11
2019-05-10T04:39:48.132Z,98.42
2019-05-10T04:40:48.100Z,98.11
2019-05-10T04:41:48.092Z,98.37
2019-05-10T04:42:48.081Z,97.96
2019-05-10T04:43:48.088Z,98.58
2019-05-10T04:44:52.609Z,98.58
2019-05-10T04:45:48.062Z,98.63
2019-05-10T04:46:48.032Z,98.06
2019-05-10T04:47:48.054Z,97.61
2019-05-10T04:48:48.025Z,97.61
2019-05-10T04:49:48.028Z,98.22
2019-05-10T04:50:49.398Z,97.30
2019-05-10T04:51:47.994Z,98.22
2019-05-10T04:52:47.968Z,97.30
2019-05-10T04:53:47.977Z,96.73
2019-05-10T04:54:47.948Z,96.68
2019-05-10T04:55:47.942Z,96.64
2019-05-10T04:56:47.935Z,96.64
2019-05-10T04:57:51.014Z,96.17
2019-05-10T04:58:47.912Z,96.27
2019-05-10T04:59:47.913Z,96.33
2019-05-10T05:00:47.875Z,95.92
2019-05-10T05:01:47.880Z,95.92
2019-05-10T05:02:47.879Z,96.43
2019-05-10T05:03:47.838Z,96.18
2019-05-10T05:04:47.878Z,95.87
2019-05-10T05:05:47.824Z,95.77
2019-05-10T05:06:47.812Z,95.21
2019-05-10T05:07:47.812Z,94.80
2019-05-10T05:08:47.812Z,93.98
2019-05-10T05:09:47.775Z,94.39
2019-05-10T05:10:47.776Z,94.65
2019-05-10T05:11:47.761Z,93.32
2019-05-10T05:12:47.740Z,92.60
2019-05-10T05:13:47.747Z,92.80
2019-05-10T05:14:47.732Z,92.60
2019-05-10T05:15:47.740Z,92.46
2019-05-10T05:16:47.697Z,92.80
2019-05-10T05:17:47.681Z,92.97
2019-05-10T05:18:47.677Z,92.97
2019-05-10T05:19:47.674Z,93.89
2019-05-10T05:20:47.672Z,93.59
2019-05-10T05:21:47.649Z,93.59
2019-05-10T05:22:47.627Z,93.59
2019-05-10T05:23:47.624Z,93.13
2019-05-10T05:24:47.622Z,93.54
2019-05-10T05:25:47.597Z,92.68
2019-05-10T05:26:47.621Z,91.86
2019-05-10T05:27:47.573Z,89.76
2019-05-10T05:28:47.565Z,90.17
2019-05-10T05:29:47.549Z,88.18
2019-05-10T05:30:47.562Z,88.90
2019-05-10T05:31:47.560Z,90.23
2019-05-10T05:32:47.544Z,89.66
2019-05-10T05:33:47.505Z,89.66
2019-05-10T05:34:47.501Z,90.23
2019-05-10T05:35:47.490Z,89.04
2019-05-10T05:36:47.498Z,90.17
2019-05-10T05:37:47.499Z,89.76
2019-05-10T05:38:49.644Z,89.45
2019-05-10T05:39:47.440Z,88.84
2019-05-10T05:40:47.430Z,89.56
2019-05-10T05:41:51.500Z,89.76
2019-05-10T05:42:47.414Z,89.21
2019-05-10T05:43:48.260Z,88.59
2019-05-10T05:44:47.390Z,89.11
2019-05-10T05:45:47.372Z,88.35
2019-05-10T05:46:47.424Z,88.82
2019-05-10T05:47:47.366Z,87.90
2019-05-10T05:48:47.388Z,89.94
2019-05-10T05:49:47.355Z,88.98
2019-05-10T05:50:47.323Z,88.98
2019-05-10T05:51:47.310Z,87.14
2019-05-10T05:52:47.324Z,87.14
2019-05-10T05:53:47.356Z,88.12
2019-05-10T05:54:47.289Z,87.82
2019-05-10T05:55:47.261Z,88.12
2019-05-10T05:56:50.652Z,86.08
2019-05-10T05:57:48.252Z,86.29
2019-05-10T05:58:47.269Z,86.08
2019-05-10T05:59:49.146Z,85.88
2019-05-10T06:00:47.219Z,84.07
2019-05-10T06:01:47.192Z,84.07
2019-05-10T06:02:47.183Z,85.81
2019-05-10T06:03:47.201Z,86.43
2019-05-10T06:04:47.726Z,86.53
2019-05-10T06:05:47.160Z,87.35
2019-05-10T06:06:47.169Z,86.36
2019-05-10T06:07:47.131Z,86.36
2019-05-10T06:08:47.117Z,87.79
2019-05-10T06:09:47.129Z,86.26
2019-05-10T06:10:56.489Z,86.05
2019-05-10T06:11:47.096Z,86.16
2019-05-10T06:12:50.588Z,85.64
2019-05-10T06:13:47.060Z,86.57
2019-05-10T06:14:49.995Z,87.14
2019-05-10T06:15:47.052Z,86.22
2019-05-10T06:16:51.591Z,86.22
2019-05-10T06:17:56.129Z,85.81
2019-05-10T06:18:48.797Z,85.81
2019-05-10T06:19:46.989Z,84.58
2019-05-10T06:20:47.079Z,83.87
2019-05-10T06:21:46.992Z,84.34
2019-05-10T06:23:04.920Z,84.99
2019-05-10T06:23:46.965Z,86.12
2019-05-10T06:24:52.243Z,85.10
2019-05-10T06:25:47.925Z,85.61
2019-05-10T06:26:46.936Z,84.28
2019-05-10T06:27:46.905Z,83.09
2019-05-10T06:29:04.667Z,81.93
2019-05-10T06:29:47.876Z,83.29
2019-05-10T06:30:46.866Z,83.09
2019-05-10T06:31:46.861Z,83.70
2019-05-10T06:32:46.858Z,82.68
2019-05-10T06:33:46.974Z,83.19
2019-05-10T06:34:46.834Z,84.01
2019-05-10T06:35:46.829Z,82.89
2019-05-10T06:36:46.797Z,84.52
2019-05-10T06:37:46.800Z,84.42
2019-05-10T06:38:46.771Z,84.97
2019-05-10T06:39:46.784Z,84.42
2019-05-10T06:40:48.073Z,84.83
2019-05-10T06:41:50.055Z,84.15
2019-05-10T06:42:46.737Z,83.81
2019-05-10T06:43:51.523Z,84.05
2019-05-10T06:44:47.716Z,82.82
2019-05-10T06:45:52.262Z,82.10
2019-05-10T06:46:46.704Z,82.71
2019-05-10T06:47:48.164Z,83.95
2019-05-10T06:48:46.665Z,84.15
2019-05-10T06:49:50.176Z,84.25
2019-05-10T06:50:46.651Z,84.77
2019-05-10T06:51:49.516Z,83.84
2019-05-10T06:52:46.641Z,85.89
2019-05-10T06:53:52.180Z,86.34
2019-05-10T06:54:46.589Z,85.63
2019-05-10T06:55:46.590Z,85.83
2019-05-10T06:56:46.589Z,86.44
2019-05-10T06:57:50.572Z,86.04
2019-05-10T06:58:46.565Z,86.69
2019-05-10T06:59:46.543Z,86.48
2019-05-10T07:00:47.551Z,86.38
2019-05-10T07:01:51.704Z,84.95
2019-05-10T07:02:47.507Z,84.99
2019-05-10T07:03:46.507Z,85.09
2019-05-10T07:04:46.510Z,85.91
2019-05-10T07:05:46.469Z,86.98
2019-05-10T07:06:46.456Z,86.46
2019-05-10T07:07:46.442Z,87.28
2019-05-10T07:08:51.763Z,88.62
2019-05-10T07:10:04.337Z,88.51
2019-05-10T07:10:46.441Z,88.92
2019-05-10T07:11:46.398Z,89.54
2019-05-10T07:12:46.437Z,90.09
2019-05-10T07:13:52.147Z,89.78
2019-05-10T07:14:46.828Z,89.78
2019-05-10T07:15:46.392Z,90.50
2019-05-10T07:16:46.341Z,91.02
2019-05-10T07:17:47.283Z,91.94
2019-05-10T07:18:46.327Z,90.81
2019-05-10T07:19:53.933Z,91.12
2019-05-10T07:20:47.330Z,90.71
2019-05-10T07:21:51.015Z,91.63
2019-05-10T07:22:46.420Z,90.81
2019-05-10T07:23:47.572Z,91.78
2019-05-10T07:24:46.260Z,91.67
2019-05-10T07:25:46.759Z,92.60
2019-05-10T07:26:46.262Z,92.50
2019-05-10T07:27:49.996Z,91.67
2019-05-10T07:28:46.212Z,92.19
2019-05-10T07:29:46.390Z,92.70
2019-05-10T07:30:46.188Z,92.33
2019-05-10T07:31:46.216Z,93.42
2019-05-10T07:32:46.182Z,94.59
2019-05-10T07:33:46.180Z,93.77
2019-05-10T07:34:48.912Z,93.46
2019-05-10T07:35:48.583Z,92.95
2019-05-10T07:36:46.120Z,93.67
2019-05-10T07:37:47.810Z,93.46
2019-05-10T07:38:47.104Z,93.98
2019-05-10T07:39:46.105Z,93.67
2019-05-10T07:40:46.088Z,93.77
2019-05-10T07:41:46.069Z,93.87
2019-05-10T07:42:47.145Z,94.29
2019-05-10T07:43:48.267Z,93.87
2019-05-10T07:44:47.138Z,94.90
2019-05-10T07:45:46.045Z,94.70
2019-05-10T07:46:49.725Z,94.08
2019-05-10T07:47:46.001Z,93.73
2019-05-10T07:48:47.289Z,93.05
2019-05-10T07:49:46.000Z,92.80
2019-05-10T07:50:51.599Z,93.73
2019-05-10T07:51:45.978Z,92.70
2019-05-10T07:52:45.998Z,92.60
2019-05-10T07:53:45.957Z,92.97
2019-05-10T07:54:47.784Z,93.07
2019-05-10T07:55:45.928Z,91.53
2019-05-10T07:56:47.828Z,91.42
2019-05-10T07:57:45.896Z,91.74
2019-05-10T07:58:45.889Z,92.55
2019-05-10T07:59:50.744Z,91.53
2019-05-10T08:00:46.756Z,92.76
2019-05-10T08:01:49.002Z,92.51
2019-05-10T08:02:51.196Z,92.82
2019-05-10T08:03:51.793Z,93.70
2019-05-10T08:04:50.428Z,93.90
2019-05-10T08:05:46.450Z,92.83
2019-05-10T08:06:48.745Z,91.71
2019-05-10T08:07:49.199Z,89.36
2019-05-10T08:08:45.819Z,90.03
2019-05-10T08:09:46.740Z,89.83
2019-05-10T08:10:45.746Z,89.37
2019-05-10T08:11:45.741Z,89.47
2019-05-10T08:12:45.816Z,88.56
2019-05-10T08:13:45.831Z,88.00
2019-05-10T08:14:50.154Z,86.16
2019-05-10T08:15:45.689Z,86.77
2019-05-10T08:16:49.881Z,87.29
2019-05-10T08:17:45.792Z,87.90
2019-05-10T08:18:45.669Z,89.53
2019-05-10T08:19:45.674Z,89.70
2019-05-10T08:20:53.576Z,88.47
2019-05-10T08:21:48.685Z,88.94
2019-05-10T08:22:46.619Z,88.74
2019-05-10T08:23:45.601Z,85.97
2019-05-10T08:24:54.473Z,87.77
2019-05-10T08:25:47.156Z,85.73
2019-05-10T08:26:45.591Z,86.44
2019-05-10T08:27:50.534Z,86.04
2019-05-10T08:28:46.553Z,85.22
2019-05-10T08:29:45.542Z,85.63
2019-05-10T08:30:52.255Z,85.08
2019-05-10T08:31:50.693Z,84.09
2019-05-10T08:32:46.496Z,83.89
2019-05-10T08:33:53.686Z,84.50
2019-05-10T08:34:52.286Z,84.26
2019-05-10T08:35:46.846Z,84.30
2019-05-10T08:36:47.687Z,83.75
2019-05-10T08:37:45.486Z,86.41
2019-05-10T08:38:58.453Z,86.51
2019-05-10T08:39:48.980Z,85.89
2019-05-10T08:40:45.414Z,82.83
2019-05-10T08:41:46.251Z,85.79
2019-05-10T08:42:54.202Z,83.75
2019-05-10T08:43:45.400Z,83.34
2019-05-10T08:44:45.361Z,82.73
2019-05-10T08:45:49.485Z,83.34
2019-05-10T08:46:45.375Z,84.47
2019-05-10T08:47:45.347Z,84.67
2019-05-10T08:48:50.361Z,85.45
2019-05-10T08:49:57.493Z,85.61
2019-05-10T08:50:53.283Z,84.08
2019-05-10T08:51:49.200Z,83.47
2019-05-10T08:52:45.299Z,83.23
2019-05-10T08:53:47.289Z,83.63
2019-05-10T08:54:45.285Z,82.71
2019-05-10T08:55:45.238Z,81.59
2019-05-10T08:56:46.781Z,81.96
2019-05-10T08:57:49.227Z,81.25
2019-05-10T08:58:45.223Z,80.74
2019-05-10T08:59:45.203Z,80.70
2019-05-10T09:00:53.809Z,82.43
2019-05-10T09:01:50.547Z,84.33
2019-05-10T09:02:45.166Z,79.24
2019-05-10T09:03:47.027Z,79.34
2019-05-10T09:04:49.869Z,79.14
2019-05-10T09:05:45.143Z,79.30
2019-05-10T09:06:47.595Z,78.89
2019-05-10T09:07:45.520Z,78.19
2019-05-10T09:08:45.116Z,80.69
2019-05-10T09:09:49.801Z,79.71
2019-05-10T09:10:46.105Z,78.96
2019-05-10T09:11:45.079Z,77.26
2019-05-10T09:12:51.019Z,77.37
2019-05-10T09:13:46.037Z,76.45
2019-05-10T09:14:48.304Z,77.26
2019-05-10T09:15:51.989Z,77.67
2019-05-10T09:16:56.395Z,78.28
2019-05-10T09:17:45.012Z,77.78
2019-05-10T09:18:50.302Z,79.61
2019-05-10T09:19:45.000Z,76.92
2019-05-10T09:20:44.975Z,78.15
2019-05-10T09:21:49.626Z,75.30
2019-05-10T09:22:44.969Z,74.58
2019-05-10T09:23:44.934Z,76.42
2019-05-10T09:24:48.751Z,75.81
2019-05-10T09:25:44.918Z,76.18
2019-05-10T09:26:47.048Z,74.76
2019-05-10T09:27:44.890Z,74.76
2019-05-10T09:28:47.624Z,77.29
2019-05-10T09:29:44.879Z,74.85
2019-05-10T09:30:56.549Z,75.73
2019-05-10T09:31:50.314Z,74.01
2019-05-10T09:32:44.828Z,72.72
2019-05-10T09:33:49.450Z,72.31
2019-05-10T09:34:44.816Z,73.94
2019-05-10T09:35:51.443Z,72.31
2019-05-10T09:36:46.991Z,73.33
2019-05-10T09:37:47.804Z,72.62
2019-05-10T09:38:46.470Z,73.50
2019-05-10T09:39:44.760Z,74.21
2019-05-10T09:40:51.424Z,73.09
2019-05-10T09:41:44.863Z,72.14
2019-05-10T09:42:44.716Z,71.36
2019-05-10T09:43:48.898Z,70.42
2019-05-10T09:44:46.094Z,69.40
2019-05-10T09:45:44.690Z,71.84
2019-05-10T09:46:44.722Z,71.84
2019-05-10T09:47:44.713Z,71.53
2019-05-10T09:48:45.174Z,71.73
2019-05-10T09:49:52.992Z,70.31
2019-05-10T09:50:47.184Z,70.86
2019-05-10T09:51:44.628Z,72.17
2019-05-10T09:52:44.634Z,71.97
2019-05-10T09:53:44.593Z,71.16
2019-05-10T09:54:44.587Z,70.07
2019-05-10T09:55:45.494Z,71.80
2019-05-10T09:56:49.098Z,73.19
2019-05-10T09:57:44.570Z,71.77
2019-05-10T09:58:44.558Z,70.75
2019-05-10T09:59:46.889Z,73.70
2019-05-10T10:00:44.532Z,70.62
2019-05-10T10:01:44.505Z,70.42
2019-05-10T10:02:47.730Z,70.21
2019-05-10T10:03:44.992Z,71.70
2019-05-10T10:04:44.483Z,71.30
2019-05-10T10:05:44.463Z,70.48
2019-05-10T10:06:48.234Z,68.45
2019-05-10T10:07:44.441Z,70.79
2019-05-10T10:08:51.122Z,70.72
2019-05-10T10:09:45.627Z,70.52
2019-05-10T10:10:44.419Z,72.45
2019-05-10T10:11:48.164Z,72.14
2019-05-10T10:12:44.385Z,72.75
2019-05-10T10:13:50.282Z,70.55
2019-05-10T10:14:44.378Z,71.06
2019-05-10T10:15:49.502Z,70.79
2019-05-10T10:16:48.881Z,71.60
2019-05-10T10:17:44.331Z,71.43
2019-05-10T10:18:44.317Z,71.64
2019-05-10T10:19:44.332Z,70.92
2019-05-10T10:20:45.429Z,71.43
2019-05-10T10:21:44.302Z,72.04
2019-05-10T10:22:49.786Z,73.50
2019-05-10T10:23:44.260Z,74.82
2019-05-10T10:24:49.129Z,77.40
2019-05-10T10:25:45.251Z,78.36
2019-05-10T10:26:44.254Z,77.85
2019-05-10T10:27:44.239Z,79.32
2019-05-10T10:28:44.226Z,79.62
2019-05-10T10:29:44.189Z,78.91
2019-05-10T10:30:44.179Z,79.04
2019-05-10T10:31:51.512Z,80.88
2019-05-10T10:32:44.675Z,77.41
2019-05-10T10:33:54.536Z,79.75
2019-05-10T10:34:45.132Z,80.41
2019-05-10T10:35:44.148Z,81.90
2019-05-10T10:36:44.259Z,82.10
2019-05-10T10:37:44.128Z,80.27
2019-05-10T10:38:49.259Z,80.57
2019-05-10T10:39:47.531Z,82.00
2019-05-10T10:40:46.051Z,81.39
2019-05-10T10:41:44.066Z,80.98
2019-05-10T10:42:44.046Z,82.10
2019-05-10T10:43:44.045Z,82.51
2019-05-10T10:44:44.049Z,82.10
2019-05-10T10:45:44.010Z,81.25
2019-05-10T10:46:44.017Z,78.60
2019-05-10T10:47:43.997Z,77.17
2019-05-10T10:48:49.279Z,78.12
2019-05-10T10:49:43.972Z,79.14
2019-05-10T10:50:49.892Z,78.33
2019-05-10T10:51:43.941Z,80.37
2019-05-10T10:52:44.647Z,77.72
2019-05-10T10:53:43.927Z,78.53
2019-05-10T10:54:43.917Z,77.51
2019-05-10T10:55:48.369Z,78.12
2019-05-10T10:56:43.906Z,77.82
2019-05-10T10:57:43.875Z,79.66
2019-05-10T10:58:43.861Z,79.18
2019-05-10T10:59:43.857Z,78.88
2019-05-10T11:00:43.852Z,80.30
2019-05-10T11:01:49.880Z,81.46
2019-05-10T11:02:46.808Z,81.37
2019-05-10T11:03:43.811Z,82.49
2019-05-10T11:04:46.684Z,82.69
2019-05-10T11:05:43.823Z,83.20
2019-05-10T11:06:43.802Z,81.05
2019-05-10T11:07:47.249Z,80.24
2019-05-10T11:08:43.752Z,81.26
2019-05-10T11:09:43.737Z,82.08
2019-05-10T11:10:43.723Z,81.05
2019-05-10T11:11:44.776Z,82.79
2019-05-10T11:12:43.749Z,80.44
2019-05-10T11:13:45.805Z,81.46
2019-05-10T11:14:45.553Z,82.04
2019-05-10T11:15:43.673Z,81.26
2019-05-10T11:16:46.618Z,81.84
2019-05-10T11:17:43.656Z,81.12
2019-05-10T11:18:43.674Z,82.45
2019-05-10T11:19:43.649Z,81.73
2019-05-10T11:20:49.557Z,81.63
2019-05-10T11:21:43.602Z,82.55
2019-05-10T11:22:49.772Z,79.69
2019-05-10T11:23:43.604Z,79.49
2019-05-10T11:24:43.606Z,79.75
2019-05-10T11:25:54.722Z,78.33
2019-05-10T11:26:44.952Z,80.37
2019-05-10T11:27:47.733Z,79.55
2019-05-10T11:28:44.339Z,77.41
2019-05-10T11:29:43.540Z,78.33
2019-05-10T11:30:43.526Z,79.00
2019-05-10T11:31:43.488Z,78.19
2019-05-10T11:32:43.481Z,76.35
2019-05-10T11:33:47.442Z,77.37
2019-05-10T11:34:44.480Z,77.27
2019-05-10T11:35:43.455Z,77.68
2019-05-10T11:36:46.036Z,77.31
2019-05-10T11:37:45.823Z,77.17
2019-05-10T11:38:47.124Z,77.51
2019-05-10T11:39:46.931Z,77.31
2019-05-10T11:40:43.396Z,78.33
2019-05-10T11:41:43.394Z,79.66
2019-05-10T11:42:47.253Z,80.37
2019-05-10T11:43:43.394Z,80.16
2019-05-10T11:44:49.976Z,78.84
2019-05-10T11:45:44.201Z,78.39
2019-05-10T11:46:43.341Z,79.66
2019-05-10T11:47:43.346Z,80.23
2019-05-10T11:48:43.326Z,79.82
2019-05-10T11:49:43.296Z,81.76
2019-05-10T11:50:43.282Z,78.50
2019-05-10T11:51:47.887Z,75.81
2019-05-10T11:52:43.273Z,74.93
2019-05-10T11:53:43.259Z,76.01
2019-05-10T11:54:43.268Z,75.92
2019-05-10T11:55:43.710Z,75.95
2019-05-10T11:56:43.236Z,75.34
2019-05-10T11:58:52.597Z,75.74
2019-05-10T11:59:44.181Z,74.62
2019-05-10T12:00:43.163Z,75.85
2019-05-10T12:01:43.158Z,75.74
2019-05-10T12:03:01.901Z,75.03
2019-05-10T12:03:43.143Z,73.71
2019-05-10T12:04:43.570Z,74.93
2019-05-10T12:05:43.125Z,74.11
2019-05-10T12:06:49.927Z,74.83
2019-05-10T12:07:46.003Z,76.05
2019-05-10T12:08:43.079Z,76.15
2019-05-10T12:09:43.070Z,76.05
2019-05-10T12:10:53.053Z,76.76
2019-05-10T12:11:51.627Z,76.35
2019-05-10T12:13:00.460Z,75.44
2019-05-10T12:13:44.043Z,75.23
2019-05-10T12:14:43.741Z,76.32
2019-05-10T12:15:43.414Z,75.85
2019-05-10T12:16:43.002Z,75.23
2019-05-10T12:17:46.222Z,73.91
2019-05-10T12:19:01.174Z,74.42
2019-05-10T12:19:48.782Z,75.20
2019-05-10T12:21:43.959Z,75.92
2019-05-10T12:22:47.363Z,77.20
2019-05-10T12:23:50.205Z,73.84
2019-05-10T12:24:58.948Z,73.33
2019-05-10T12:25:59.250Z,73.91
2019-05-10T12:26:00.228Z,75.34
2019-05-10T12:26:31.417Z,76.42
2019-05-10T12:27:48.700Z,71.36
2019-05-10T12:28:43.864Z,72.11
2019-05-10T12:29:46.584Z,72.92
2019-05-10T12:30:42.850Z,73.23
2019-05-10T12:31:47.472Z,75.06
2019-05-10T12:32:55.718Z,74.15
2019-05-10T12:33:45.303Z,74.21
2019-05-10T12:34:45.979Z,75.06
2019-05-10T12:35:47.309Z,74.25
2019-05-10T12:36:43.593Z,75.06
2019-05-10T12:37:46.457Z,75.13
2019-05-10T12:38:42.775Z,75.13
2019-05-10T12:39:42.753Z,74.25
2019-05-10T12:40:45.736Z,75.16
2019-05-10T12:41:47.849Z,73.02
2019-05-10T12:42:46.935Z,73.33
2019-05-10T12:43:43.673Z,73.91
2019-05-10T12:44:46.340Z,74.62
2019-05-10T12:45:42.678Z,74.93
2019-05-10T12:46:42.687Z,74.82
2019-05-10T12:47:42.641Z,72.89
2019-05-10T12:48:42.755Z,74.41
2019-05-10T12:49:42.622Z,73.94
2019-05-10T12:50:44.321Z,73.84
2019-05-10T12:51:43.225Z,73.94
2019-05-10T12:52:43.333Z,74.86
2019-05-10T12:53:47.669Z,75.27